Time;durP1;ratioP1;P1;durP2;ratioP2;P2;SDS_P1;SDS_P2;PMS_P1;PMS_P2;Temp;Humidity;BMP_temperature;BMP_pressure;BME280_temperature;BME280_humidity;BME280_pressure;Samples;Min_cycle;Max_cycle;Signal;HPM_P1;HPM_P2
2023/11/16 00:00:07;;;;;;;3.53;1.70;;;;;;;;;;6324271;22;20230;-80
2023/11/16 00:02:35;;;;;;;1.60;1.50;;;;;;;;;;6323352;22;20182;-79
2023/11/16 00:05:03;;;;;;;2.45;2.10;;;;;;;;;;6323526;22;20199;-80
2023/11/16 00:07:32;;;;;;;3.03;1.83;;;;;;;;;;6324294;22;20191;-80
2023/11/16 00:10:03;;;;;;;1.90;1.50;;;;;;;;;;6324871;22;20176;-80
2023/11/16 00:12:31;;;;;;;1.45;1.33;;;;;;;;;;6324904;22;20160;-81
2023/11/16 00:14:58;;;;;;;2.25;1.77;;;;;;;;;;6322301;22;20502;-80
2023/11/16 00:17:28;;;;;;;2.20;1.45;;;;;;;;;;6321723;22;20593;-80
2023/11/16 00:19:55;;;;;;;1.13;1.13;;;;;;;;;;6322533;22;20199;-79
2023/11/16 00:22:24;;;;;;;2.10;1.48;;;;;;;;;;6322505;22;20175;-80
2023/11/16 00:24:52;;;;;;;1.58;1.33;;;;;;;;;;6323940;22;20172;-80
2023/11/16 00:27:21;;;;;;;4.32;2.08;;;;;;;;;;6324721;22;20230;-79
2023/11/16 00:29:49;;;;;;;1.58;1.45;;;;;;;;;;6324162;22;20211;-80
2023/11/16 00:32:16;;;;;;;1.95;1.55;;;;;;;;;;6322856;22;20175;-80
2023/11/16 00:34:44;;;;;;;2.17;1.38;;;;;;;;;;6322339;22;20175;-79
2023/11/16 00:37:11;;;;;;;1.50;1.40;;;;;;;;;;6324479;22;20207;-79
2023/11/16 00:39:39;;;;;;;1.50;1.40;;;;;;;;;;6324294;22;20195;-80
2023/11/16 00:42:07;;;;;;;1.58;1.48;;;;;;;;;;6324646;22;20172;-79
2023/11/16 00:44:37;;;;;;;2.42;1.27;;;;;;;;;;6324640;22;20175;-80
2023/11/16 00:47:05;;;;;;;5.18;1.67;;;;;;;;;;6322441;22;20199;-80
2023/11/16 00:49:33;;;;;;;5.95;1.80;;;;;;;;;;6323207;22;20183;-79
2023/11/16 00:52:00;;;;;;;1.45;1.30;;;;;;;;;;6325055;22;20195;-79
2023/11/16 00:54:28;;;;;;;1.98;1.15;;;;;;;;;;6322362;22;20183;-80
2023/11/16 00:56:56;;;;;;;5.03;1.92;;;;;;;;;;6324415;22;20196;-80
2023/11/16 00:59:23;;;;;;;3.85;1.52;;;;;;;;;;6325518;22;20224;-79
2023/11/16 01:01:56;;;;;;;1.40;1.30;;;;;;;;;;6323579;22;20667;-79
2023/11/16 01:04:23;;;;;;;1.60;1.33;;;;;;;;;;6323786;22;20164;-79
2023/11/16 01:06:50;;;;;;;3.03;1.30;;;;;;;;;;6323873;22;20525;-80
2023/11/16 01:09:19;;;;;;;1.27;1.17;;;;;;;;;;6322460;22;20234;-79
2023/11/16 01:11:46;;;;;;;1.92;1.65;;;;;;;;;;6323730;22;20612;-80
2023/11/16 01:14:16;;;;;;;3.35;1.35;;;;;;;;;;6323629;22;20171;-79
2023/11/16 01:16:45;;;;;;;1.02;1.02;;;;;;;;;;6324947;22;20196;-80
2023/11/16 01:19:16;;;;;;;2.03;1.55;;;;;;;;;;6323957;22;20247;-80
2023/11/16 01:21:50;;;;;;;2.75;1.95;;;;;;;;;;6324530;22;20163;-79
2023/11/16 01:24:22;;;;;;;3.20;1.73;;;;;;;;;;6323286;22;20177;-79
2023/11/16 01:26:51;;;;;;;1.95;1.30;;;;;;;;;;6324163;22;20195;-80
2023/11/16 01:29:19;;;;;;;2.35;1.73;;;;;;;;;;6324663;22;20176;-79
2023/11/16 01:31:53;;;;;;;2.10;1.38;;;;;;;;;;6324474;22;20176;-79
2023/11/16 01:34:23;;;;;;;1.90;1.63;;;;;;;;;;6323610;22;20166;-79
2023/11/16 01:36:51;;;;;;;1.20;1.10;;;;;;;;;;6323369;22;20278;-79
2023/11/16 01:39:19;;;;;;;2.85;1.60;;;;;;;;;;6324020;22;20564;-80
2023/11/16 01:41:46;;;;;;;1.55;1.40;;;;;;;;;;6325596;22;20517;-79
2023/11/16 01:44:14;;;;;;;1.27;1.17;;;;;;;;;;6324178;22;20643;-80
2023/11/16 01:46:42;;;;;;;1.45;1.00;;;;;;;;;;6325850;22;20250;-80
2023/11/16 01:49:09;;;;;;;3.28;1.30;;;;;;;;;;6323919;22;20179;-80
2023/11/16 01:51:43;;;;;;;1.40;1.23;;;;;;;;;;6326041;22;20255;-80
2023/11/16 01:54:11;;;;;;;1.67;1.58;;;;;;;;;;6326496;22;20160;-79
2023/11/16 01:56:40;;;;;;;1.95;1.40;;;;;;;;;;6324988;22;20563;-81
2023/11/16 01:59:09;;;;;;;1.50;1.15;;;;;;;;;;6326248;22;20222;-80
2023/11/16 02:01:37;;;;;;;2.45;1.42;;;;;;;;;;6326688;22;20175;-80
2023/11/16 02:04:06;;;;;;;2.65;1.60;;;;;;;;;;6325255;22;20636;-80
2023/11/16 02:06:34;;;;;;;2.60;1.60;;;;;;;;;;6327807;22;20176;-80
2023/11/16 02:09:03;;;;;;;1.75;1.23;;;;;;;;;;6327205;22;20176;-80
2023/11/16 02:11:31;;;;;;;1.48;1.38;;;;;;;;;;6327307;22;20194;-79
2023/11/16 02:13:58;;;;;;;3.58;2.10;;;;;;;;;;6326955;22;20182;-79
2023/11/16 02:16:25;;;;;;;3.17;1.77;;;;;;;;;;6326659;22;20176;-79
2023/11/16 02:18:53;;;;;;;2.40;1.67;;;;;;;;;;6327123;22;20618;-80
2023/11/16 02:21:21;;;;;;;2.45;1.60;;;;;;;;;;6326800;22;20166;-79
2023/11/16 02:23:51;;;;;;;1.98;1.35;;;;;;;;;;6326379;22;20175;-79
2023/11/16 02:26:19;;;;;;;1.88;1.27;;;;;;;;;;6326634;22;20176;-79
2023/11/16 02:28:46;;;;;;;1.10;1.10;;;;;;;;;;6324661;22;20171;-80
2023/11/16 02:31:18;;;;;;;1.65;1.23;;;;;;;;;;6326774;22;20176;-80
2023/11/16 02:33:45;;;;;;;0.95;0.95;;;;;;;;;;6325812;22;20175;-80
2023/11/16 02:36:13;;;;;;;2.00;1.30;;;;;;;;;;6325403;22;20644;-79
2023/11/16 02:38:40;;;;;;;4.78;1.73;;;;;;;;;;6325618;22;20538;-79
2023/11/16 02:41:09;;;;;;;2.42;1.38;;;;;;;;;;6327845;22;20179;-80
2023/11/16 02:43:37;;;;;;;1.45;1.38;;;;;;;;;;6325311;22;20208;-79
2023/11/16 02:46:05;;;;;;;2.78;1.38;;;;;;;;;;6312435;22;20708;-78
2023/11/16 02:48:32;;;;;;;4.32;1.35;;;;;;;;;;6313127;22;20200;-78
2023/11/16 02:51:00;;;;;;;1.60;1.10;;;;;;;;;;6312248;22;20231;-77
2023/11/16 02:53:27;;;;;;;2.63;1.70;;;;;;;;;;6312538;22;20175;-80
2023/11/16 02:55:55;;;;;;;1.30;1.20;;;;;;;;;;6313559;22;20577;-78
2023/11/16 02:58:24;;;;;;;1.45;1.10;;;;;;;;;;6312574;22;20275;-80
2023/11/16 03:00:52;;;;;;;1.30;1.13;;;;;;;;;;6313833;22;20640;-79
2023/11/16 03:03:19;;;;;;;1.20;1.20;;;;;;;;;;6312848;22;20207;-80
2023/11/16 03:05:47;;;;;;;1.10;1.10;;;;;;;;;;6312357;22;20230;-79
2023/11/16 03:08:15;;;;;;;1.13;1.00;;;;;;;;;;6313135;22;20198;-78
2023/11/16 03:10:42;;;;;;;2.38;1.13;;;;;;;;;;6313578;22;20580;-80
2023/11/16 03:13:12;;;;;;;1.67;1.30;;;;;;;;;;6312797;22;20199;-79
2023/11/16 03:15:40;;;;;;;1.10;1.00;;;;;;;;;;6313723;22;20211;-79
2023/11/16 03:18:08;;;;;;;1.02;1.00;;;;;;;;;;6312596;22;20565;-79
2023/11/16 03:20:35;;;;;;;2.67;1.40;;;;;;;;;;6312825;22;20275;-80
2023/11/16 03:23:04;;;;;;;2.03;1.30;;;;;;;;;;6313790;22;20175;-78
2023/11/16 03:25:33;;;;;;;1.40;1.30;;;;;;;;;;6313069;22;20259;-79
2023/11/16 03:28:01;;;;;;;2.95;1.23;;;;;;;;;;6313203;22;20509;-78
2023/11/16 03:30:28;;;;;;;1.48;1.38;;;;;;;;;;6312925;22;20224;-79
2023/11/16 03:32:57;;;;;;;1.17;1.10;;;;;;;;;;6313097;22;20203;-78
2023/11/16 03:35:24;;;;;;;1.70;1.50;;;;;;;;;;6312366;22;20172;-79
2023/11/16 03:37:53;;;;;;;1.88;1.45;;;;;;;;;;6312300;22;20233;-80
2023/11/16 03:40:20;;;;;;;4.65;1.30;;;;;;;;;;6313088;22;20196;-78
2023/11/16 03:42:48;;;;;;;1.55;1.15;;;;;;;;;;6312668;22;20564;-79
2023/11/16 03:45:15;;;;;;;3.22;1.55;;;;;;;;;;6312022;22;20203;-79
2023/11/16 03:47:43;;;;;;;3.20;1.38;;;;;;;;;;6312542;22;20271;-79
2023/11/16 03:50:12;;;;;;;1.70;1.38;;;;;;;;;;6313107;22;20700;-80
2023/11/16 03:52:39;;;;;;;2.60;1.60;;;;;;;;;;6313094;22;20292;-79
2023/11/16 03:55:08;;;;;;;1.65;1.10;;;;;;;;;;6313331;22;20195;-79
2023/11/16 03:57:36;;;;;;;4.68;1.30;;;;;;;;;;6313396;22;20478;-80
2023/11/16 04:00:04;;;;;;;3.20;2.30;;;;;;;;;;6313938;22;20198;-80
2023/11/16 04:02:31;;;;;;;2.65;1.60;;;;;;;;;;6313224;22;20210;-78
2023/11/16 04:05:00;;;;;;;1.15;1.05;;;;;;;;;;6313354;22;20199;-78
2023/11/16 04:07:29;;;;;;;1.42;1.25;;;;;;;;;;6313540;22;20276;-80
2023/11/16 04:09:56;;;;;;;2.25;1.13;;;;;;;;;;6312650;22;20250;-79
2023/11/16 04:12:24;;;;;;;2.65;1.40;;;;;;;;;;6312863;22;20575;-79
2023/11/16 04:14:51;;;;;;;1.73;1.33;;;;;;;;;;6312404;22;20175;-79
2023/11/16 04:17:21;;;;;;;1.63;1.00;;;;;;;;;;6311971;22;20282;-79
2023/11/16 04:19:49;;;;;;;3.28;1.60;;;;;;;;;;6313098;22;20218;-79
2023/11/16 04:22:19;;;;;;;1.10;1.00;;;;;;;;;;6313727;22;20636;-79
2023/11/16 04:24:51;;;;;;;0.93;0.93;;;;;;;;;;6312159;22;20179;-79
2023/11/16 04:27:19;;;;;;;1.92;1.00;;;;;;;;;;6312555;22;20255;-79
2023/11/16 04:29:46;;;;;;;1.67;1.10;;;;;;;;;;6306550;22;20177;-79
2023/11/16 04:32:14;;;;;;;2.13;1.10;;;;;;;;;;6304452;22;20237;-77
2023/11/16 04:34:42;;;;;;;1.73;1.17;;;;;;;;;;6302989;22;20187;-77
2023/11/16 04:37:10;;;;;;;0.88;0.88;;;;;;;;;;6303216;22;20256;-78
2023/11/16 04:39:38;;;;;;;1.10;1.00;;;;;;;;;;6308429;22;20203;-79
2023/11/16 04:42:08;;;;;;;1.42;1.33;;;;;;;;;;6311871;22;20182;-79
2023/11/16 04:44:35;;;;;;;2.17;1.15;;;;;;;;;;6312110;22;20221;-80
2023/11/16 04:47:04;;;;;;;2.03;1.20;;;;;;;;;;6312131;22;20191;-80
2023/11/16 04:49:31;;;;;;;2.15;1.15;;;;;;;;;;6312464;22;20184;-80
2023/11/16 04:51:59;;;;;;;2.90;1.75;;;;;;;;;;6310777;22;20211;-77
2023/11/16 04:54:26;;;;;;;3.55;1.20;;;;;;;;;;6310440;22;20254;-77
2023/11/16 04:56:54;;;;;;;5.57;1.75;;;;;;;;;;6312262;22;20482;-78
2023/11/16 04:59:23;;;;;;;2.85;1.10;;;;;;;;;;6311839;22;20176;-79
2023/11/16 05:01:50;;;;;;;1.70;1.35;;;;;;;;;;6310966;22;20252;-78
2023/11/16 05:04:18;;;;;;;2.53;1.88;;;;;;;;;;6311833;22;20254;-80
2023/11/16 05:06:45;;;;;;;1.63;1.52;;;;;;;;;;6312424;22;20275;-78
2023/11/16 05:09:13;;;;;;;0.77;0.77;;;;;;;;;;6311388;22;20516;-79
2023/11/16 05:11:41;;;;;;;1.08;1.08;;;;;;;;;;6311619;22;20171;-79
2023/11/16 05:14:08;;;;;;;1.45;0.90;;;;;;;;;;6311202;22;20258;-79
2023/11/16 05:16:37;;;;;;;1.10;1.00;;;;;;;;;;6311482;22;20262;-79
2023/11/16 05:19:04;;;;;;;1.73;1.08;;;;;;;;;;6311211;22;20254;-80
2023/11/16 05:21:32;;;;;;;2.33;1.25;;;;;;;;;;6311183;22;20223;-79
2023/11/16 05:23:59;;;;;;;2.72;1.63;;;;;;;;;;6311235;22;20243;-79
2023/11/16 05:26:27;;;;;;;1.63;1.48;;;;;;;;;;6311921;22;20254;-77
2023/11/16 05:28:55;;;;;;;1.20;1.10;;;;;;;;;;6312155;22;20176;-79
2023/11/16 05:31:22;;;;;;;1.42;1.40;;;;;;;;;;6311531;22;20650;-79
2023/11/16 05:33:53;;;;;;;0.95;0.93;;;;;;;;;;6311996;22;20182;-79
2023/11/16 05:36:22;;;;;;;0.82;0.68;;;;;;;;;;6311938;22;20243;-78
2023/11/16 05:38:50;;;;;;;4.95;2.05;;;;;;;;;;6310627;22;20267;-78
2023/11/16 05:41:18;;;;;;;2.53;1.90;;;;;;;;;;6310828;22;20265;-79
2023/11/16 05:43:47;;;;;;;2.75;1.50;;;;;;;;;;6310888;22;20198;-78
2023/11/16 05:46:14;;;;;;;1.60;1.50;;;;;;;;;;6311167;22;20262;-79
2023/11/16 05:48:42;;;;;;;1.80;1.45;;;;;;;;;;6310720;22;20288;-77
2023/11/16 05:51:10;;;;;;;1.17;1.05;;;;;;;;;;6311631;22;20179;-78
2023/11/16 05:53:39;;;;;;;2.70;1.40;;;;;;;;;;6311068;22;20250;-79
2023/11/16 05:56:07;;;;;;;3.22;1.75;;;;;;;;;;6311987;22;20178;-79
2023/11/16 05:58:35;;;;;;;6.75;2.70;;;;;;;;;;6311522;22;20234;-79
2023/11/16 06:01:02;;;;;;;1.73;1.63;;;;;;;;;;6310243;22;20196;-79
2023/11/16 06:03:31;;;;;;;2.47;1.60;;;;;;;;;;6310829;22;20180;-78
2023/11/16 06:05:59;;;;;;;2.17;1.98;;;;;;;;;;6310957;22;20260;-79
2023/11/16 06:08:29;;;;;;;6.75;3.90;;;;;;;;;;6311494;22;20203;-79
2023/11/16 06:10:56;;;;;;;2.83;1.90;;;;;;;;;;6311520;22;20490;-79
2023/11/16 06:13:24;;;;;;;3.08;2.22;;;;;;;;;;6312187;22;20207;-79
2023/11/16 06:15:54;;;;;;;4.65;3.15;;;;;;;;;;6311533;22;20175;-79
2023/11/16 06:18:24;;;;;;;5.70;2.83;;;;;;;;;;6310811;22;20275;-77
2023/11/16 06:20:51;;;;;;;5.10;2.58;;;;;;;;;;6311370;22;20489;-80
2023/11/16 06:23:19;;;;;;;1.70;1.60;;;;;;;;;;6311410;22;20207;-79
2023/11/16 06:25:47;;;;;;;2.97;1.67;;;;;;;;;;6311377;22;20561;-79
2023/11/16 06:28:15;;;;;;;3.25;2.03;;;;;;;;;;6312326;22;20220;-79
2023/11/16 06:30:43;;;;;;;5.63;2.00;;;;;;;;;;6312906;22;20179;-79
2023/11/16 06:33:11;;;;;;;3.65;2.92;;;;;;;;;;6314042;22;20552;-79
2023/11/16 06:35:38;;;;;;;2.95;1.83;;;;;;;;;;6313137;22;20250;-78
2023/11/16 06:38:09;;;;;;;2.10;1.80;;;;;;;;;;6312280;22;20770;-78
2023/11/16 06:40:36;;;;;;;4.57;2.00;;;;;;;;;;6313755;22;20167;-78
2023/11/16 06:43:06;;;;;;;1.60;1.50;;;;;;;;;;6313363;22;20279;-79
2023/11/16 06:45:40;;;;;;;4.05;1.83;;;;;;;;;;6314269;22;20243;-79
2023/11/16 06:48:08;;;;;;;3.28;2.33;;;;;;;;;;6314238;22;20221;-79
2023/11/16 06:50:36;;;;;;;1.92;1.80;;;;;;;;;;6313933;22;20555;-80
2023/11/16 06:53:05;;;;;;;6.28;2.05;;;;;;;;;;6312945;22;20258;-80
2023/11/16 06:55:33;;;;;;;2.83;1.98;;;;;;;;;;6314839;22;20225;-79
2023/11/16 06:58:02;;;;;;;2.95;1.98;;;;;;;;;;6313129;22;20195;-80
2023/11/16 07:00:31;;;;;;;3.92;2.03;;;;;;;;;;6314016;22;20258;-80
2023/11/16 07:02:58;;;;;;;2.30;2.10;;;;;;;;;;6313590;22;20202;-78
2023/11/16 07:05:26;;;;;;;4.57;2.42;;;;;;;;;;6313737;22;20562;-81
2023/11/16 07:07:53;;;;;;;1.98;1.88;;;;;;;;;;6312653;22;20274;-79
2023/11/16 07:10:20;;;;;;;1.52;1.25;;;;;;;;;;6313472;22;20263;-79
2023/11/16 07:12:48;;;;;;;1.30;1.20;;;;;;;;;;6313272;22;20172;-79
2023/11/16 07:15:16;;;;;;;1.40;1.30;;;;;;;;;;6314013;22;20178;-79
2023/11/16 07:17:45;;;;;;;9.38;2.50;;;;;;;;;;6313060;22;20192;-79
2023/11/16 07:20:13;;;;;;;2.85;1.50;;;;;;;;;;6312677;22;20266;-79
2023/11/16 07:22:41;;;;;;;1.42;1.33;;;;;;;;;;6313782;22;20199;-79
2023/11/16 07:25:09;;;;;;;1.50;1.40;;;;;;;;;;6313789;22;20171;-80
2023/11/16 07:27:38;;;;;;;0.98;0.98;;;;;;;;;;6313562;22;20690;-79
2023/11/16 07:30:08;;;;;;;1.35;1.10;;;;;;;;;;6314268;22;20635;-78
2023/11/16 07:32:35;;;;;;;2.25;1.20;;;;;;;;;;6312554;22;20228;-80
2023/11/16 07:35:14;;;;;;;1.75;1.40;;;;;;;;;;6311847;22;20210;-79
2023/11/16 07:37:44;;;;;;;2.80;1.60;;;;;;;;;;6313401;22;20196;-79
2023/11/16 07:40:13;;;;;;;1.60;1.45;;;;;;;;;;6313584;22;20170;-79
2023/11/16 07:42:41;;;;;;;1.33;1.20;;;;;;;;;;6312665;22;20191;-79
2023/11/16 07:45:10;;;;;;;5.10;1.60;;;;;;;;;;6312337;22;20178;-78
2023/11/16 07:47:39;;;;;;;2.03;1.08;;;;;;;;;;6312941;22;20511;-79
2023/11/16 07:50:11;;;;;;;1.27;1.00;;;;;;;;;;6312879;22;20211;-78
2023/11/16 07:52:43;;;;;;;1.63;1.38;;;;;;;;;;6313233;22;20156;-79
2023/11/16 07:55:15;;;;;;;2.33;1.58;;;;;;;;;;6313437;22;20167;-80
2023/11/16 07:57:47;;;;;;;1.70;1.60;;;;;;;;;;6313249;22;20238;-79
2023/11/16 08:00:22;;;;;;;3.22;1.63;;;;;;;;;;6313262;22;20156;-80
2023/11/16 08:05:37;;;;;;;1.13;1.13;;;;;;;;;;6312599;22;20159;-77
2023/11/16 08:08:07;;;;;;;1.50;1.40;;;;;;;;;;6312688;22;20199;-79
2023/11/16 08:10:34;;;;;;;2.40;1.48;;;;;;;;;;6312924;22;20255;-80
2023/11/16 08:13:02;;;;;;;2.58;1.40;;;;;;;;;;6313194;22;20179;-79
2023/11/16 08:15:29;;;;;;;3.05;1.05;;;;;;;;;;6311162;22;20206;-79
2023/11/16 08:17:59;;;;;;;1.77;1.60;;;;;;;;;;6312827;22;20219;-78
2023/11/16 08:20:28;;;;;;;3.10;1.42;;;;;;;;;;6312687;22;20183;-80
2023/11/16 08:22:57;;;;;;;3.47;1.15;;;;;;;;;;6313334;22;20218;-79
2023/11/16 08:25:28;;;;;;;2.28;1.75;;;;;;;;;;6311851;22;20176;-80
2023/11/16 08:27:57;;;;;;;1.45;1.23;;;;;;;;;;6312036;22;20199;-77
2023/11/16 08:30:26;;;;;;;1.95;1.23;;;;;;;;;;6312688;22;20262;-79
2023/11/16 08:32:53;;;;;;;1.17;1.10;;;;;;;;;;6313638;22;20172;-80
2023/11/16 08:35:23;;;;;;;3.10;1.23;;;;;;;;;;6312196;22;20625;-80
2023/11/16 08:37:52;;;;;;;2.13;1.60;;;;;;;;;;6311590;22;20187;-80
2023/11/16 08:40:23;;;;;;;1.50;1.40;;;;;;;;;;6311980;22;20176;-80
2023/11/16 08:42:51;;;;;;;2.05;1.88;;;;;;;;;;6312336;22;20203;-78
2023/11/16 08:45:20;;;;;;;1.48;1.38;;;;;;;;;;6312548;22;20182;-78
2023/11/16 08:47:48;;;;;;;1.67;1.58;;;;;;;;;;6312850;22;20199;-79
2023/11/16 08:50:17;;;;;;;1.55;1.27;;;;;;;;;;6312590;22;20187;-78
2023/11/16 08:52:48;;;;;;;2.40;1.00;;;;;;;;;;6313126;22;20545;-78
2023/11/16 08:55:21;;;;;;;2.10;1.70;;;;;;;;;;6313615;22;20191;-77
2023/11/16 08:57:51;;;;;;;1.65;1.40;;;;;;;;;;6314144;22;20245;-79
2023/11/16 09:00:33;;;;;;;2.40;1.27;;;;;;;;;;6313344;22;20544;-78
2023/11/16 09:03:04;;;;;;;2.17;1.77;;;;;;;;;;6313551;22;20179;-78
2023/11/16 09:05:32;;;;;;;5.88;2.30;;;;;;;;;;6313540;22;20532;-79
2023/11/16 09:08:01;;;;;;;2.45;1.55;;;;;;;;;;6313892;22;20195;-79
2023/11/16 09:10:31;;;;;;;3.28;1.65;;;;;;;;;;6313279;22;20193;-78
2023/11/16 09:13:01;;;;;;;2.40;1.50;;;;;;;;;;6313656;22;20162;-78
2023/11/16 09:15:29;;;;;;;4.47;1.67;;;;;;;;;;6314028;22;20160;-79
2023/11/16 09:17:59;;;;;;;7.78;2.58;;;;;;;;;;6312970;22;20203;-79
2023/11/16 09:20:28;;;;;;;2.13;1.52;;;;;;;;;;6311054;22;20187;-80
2023/11/16 09:22:57;;;;;;;1.77;1.45;;;;;;;;;;6311551;22;20202;-80
2023/11/16 09:25:29;;;;;;;2.60;1.40;;;;;;;;;;6312350;22;20233;-80
2023/11/16 09:27:58;;;;;;;2.83;1.83;;;;;;;;;;6313604;22;20211;-81
2023/11/16 09:30:27;;;;;;;3.00;1.52;;;;;;;;;;6311715;22;20279;-80
2023/11/16 09:32:55;;;;;;;3.47;2.10;;;;;;;;;;6313534;22;20190;-80
2023/11/16 09:35:23;;;;;;;2.05;1.65;;;;;;;;;;6310878;22;20198;-81
2023/11/16 09:37:52;;;;;;;2.65;1.77;;;;;;;;;;6312434;22;20178;-80
2023/11/16 09:40:21;;;;;;;3.40;1.42;;;;;;;;;;6311447;22;20199;-80
2023/11/16 09:42:56;;;;;;;2.72;2.28;;;;;;;;;;6311932;22;20202;-81
2023/11/16 09:45:27;;;;;;;2.40;1.52;;;;;;;;;;6312251;22;20155;-80
2023/11/16 09:48:00;;;;;;;1.33;1.23;;;;;;;;;;6311611;22;20156;-80
2023/11/16 09:50:27;;;;;;;1.30;1.20;;;;;;;;;;6312131;22;20187;-80
2023/11/16 09:52:57;;;;;;;0.90;0.90;;;;;;;;;;6310752;22;20172;-81
2023/11/16 09:55:30;;;;;;;1.05;0.95;;;;;;;;;;6312028;22;20179;-80
2023/11/16 09:58:04;;;;;;;1.58;1.30;;;;;;;;;;6312117;22;20191;-81
2023/11/16 10:00:34;;;;;;;1.40;1.30;;;;;;;;;;6311560;22;20254;-81
2023/11/16 10:03:05;;;;;;;2.97;1.75;;;;;;;;;;6313452;22;20197;-81
2023/11/16 10:05:35;;;;;;;1.40;1.30;;;;;;;;;;6313929;22;20160;-80
2023/11/16 10:08:08;;;;;;;4.38;3.50;;;;;;;;;;6313858;22;20600;-81
2023/11/16 10:10:36;;;;;;;4.07;2.80;;;;;;;;;;6313041;22;20192;-80
2023/11/16 10:13:05;;;;;;;4.63;3.70;;;;;;;;;;6312797;22;20178;-81
2023/11/16 10:15:35;;;;;;;3.58;2.63;;;;;;;;;;6313414;22;20250;-80
2023/11/16 10:18:09;;;;;;;2.28;1.40;;;;;;;;;;6311780;22;20167;-87
2023/11/16 10:20:40;;;;;;;3.78;2.13;;;;;;;;;;6307809;22;20195;-86
2023/11/16 10:23:09;;;;;;;2.80;2.05;;;;;;;;;;6308613;22;20186;-87
2023/11/16 10:25:38;;;;;;;2.65;1.45;;;;;;;;;;6308449;22;20167;-87
2023/11/16 10:28:19;;;;;;;1.55;1.45;;;;;;;;;;6308940;22;20265;-86
2023/11/16 10:30:48;;;;;;;1.55;1.45;;;;;;;;;;6308453;22;20243;-87
2023/11/16 10:33:16;;;;;;;3.97;2.00;;;;;;;;;;6308647;22;20222;-86
2023/11/16 10:35:49;;;;;;;2.75;1.92;;;;;;;;;;6308473;22;20172;-86
2023/11/16 10:38:18;;;;;;;1.40;1.30;;;;;;;;;;6308503;22;20160;-89
2023/11/16 10:40:49;;;;;;;6.75;3.63;;;;;;;;;;6308222;22;20172;-86
2023/11/16 10:43:22;;;;;;;6.20;3.75;;;;;;;;;;6308037;22;20180;-86
2023/11/16 10:45:53;;;;;;;8.00;3.47;;;;;;;;;;6307888;22;20574;-86
2023/11/16 10:48:21;;;;;;;4.22;2.25;;;;;;;;;;6307823;22;20162;-88
2023/11/16 10:50:49;;;;;;;5.80;3.80;;;;;;;;;;6308801;22;20176;-88
2023/11/16 10:53:20;;;;;;;7.10;2.47;;;;;;;;;;6308272;22;20188;-89
2023/11/16 10:55:49;;;;;;;3.33;1.85;;;;;;;;;;6309101;22;20171;-88
2023/11/16 10:58:21;;;;;;;5.70;2.25;;;;;;;;;;6308351;22;20175;-88
2023/11/16 11:00:53;;;;;;;1.90;1.77;;;;;;;;;;6308355;22;20153;-89
2023/11/16 11:03:21;;;;;;;1.17;1.00;;;;;;;;;;6308538;22;20248;-89
2023/11/16 11:05:52;;;;;;;1.30;1.20;;;;;;;;;;6308429;22;20168;-88
2023/11/16 11:08:21;;;;;;;1.48;1.38;;;;;;;;;;6308124;22;20225;-89
2023/11/16 11:10:50;;;;;;;2.75;1.60;;;;;;;;;;6308196;22;20178;-89
2023/11/16 11:13:26;;;;;;;1.95;1.48;;;;;;;;;;6307149;22;20210;-89
2023/11/16 11:15:56;;;;;;;3.40;2.28;;;;;;;;;;6308229;22;20221;-89
2023/11/16 11:18:27;;;;;;;1.45;1.35;;;;;;;;;;6308092;22;20190;-89
2023/11/16 11:21:07;;;;;;;3.03;2.10;;;;;;;;;;6307931;22;20168;-89
2023/11/16 11:23:37;;;;;;;1.00;1.00;;;;;;;;;;6308557;22;20176;-88
2023/11/16 11:26:07;;;;;;;2.88;1.38;;;;;;;;;;6307815;22;20198;-88
2023/11/16 11:28:38;;;;;;;1.33;1.23;;;;;;;;;;6308100;22;20638;-88
2023/11/16 11:31:10;;;;;;;1.23;1.10;;;;;;;;;;6308065;22;20178;-89
2023/11/16 11:33:39;;;;;;;1.23;1.13;;;;;;;;;;6307843;22;20164;-89
2023/11/16 11:36:12;;;;;;;1.33;1.10;;;;;;;;;;6308574;22;20612;-88
2023/11/16 11:38:42;;;;;;;1.23;1.00;;;;;;;;;;6307745;22;20199;-89
2023/11/16 11:41:12;;;;;;;1.00;1.00;;;;;;;;;;6308287;22;20174;-89
2023/11/16 11:43:41;;;;;;;1.35;1.25;;;;;;;;;;6307742;22;20172;-89
2023/11/16 11:46:11;;;;;;;0.93;0.90;;;;;;;;;;6307872;22;20620;-89
2023/11/16 11:48:40;;;;;;;0.90;0.85;;;;;;;;;;6307671;22;20261;-89
2023/11/16 11:51:10;;;;;;;0.95;0.95;;;;;;;;;;6307812;22;20699;-89
2023/11/16 11:53:40;;;;;;;1.75;1.65;;;;;;;;;;6307660;22;20182;-89
2023/11/16 11:56:10;;;;;;;1.98;1.13;;;;;;;;;;6308476;22;20658;-89
2023/11/16 11:58:39;;;;;;;1.05;0.98;;;;;;;;;;6307999;22;20160;-88
2023/11/16 12:01:10;;;;;;;1.05;1.05;;;;;;;;;;6307851;22;20171;-88
2023/11/16 12:03:48;;;;;;;1.40;1.30;;;;;;;;;;6307168;22;20167;-89
2023/11/16 12:06:18;;;;;;;1.38;1.27;;;;;;;;;;6307462;22;20206;-89
2023/11/16 12:08:49;;;;;;;1.27;1.00;;;;;;;;;;6307134;22;20208;-89
2023/11/16 12:11:20;;;;;;;2.55;1.73;;;;;;;;;;6307255;22;20559;-89
2023/11/16 12:13:49;;;;;;;2.83;1.30;;;;;;;;;;6307382;22;20168;-90
2023/11/16 12:16:19;;;;;;;1.58;1.23;;;;;;;;;;6307105;22;20172;-89
2023/11/16 12:18:48;;;;;;;1.77;1.50;;;;;;;;;;6307320;22;20245;-89
2023/11/16 12:21:16;;;;;;;2.88;1.27;;;;;;;;;;6307525;22;20282;-89
2023/11/16 12:23:47;;;;;;;1.92;1.83;;;;;;;;;;6307156;22;20176;-89
2023/11/16 12:26:18;;;;;;;1.42;1.23;;;;;;;;;;6306695;22;20222;-90
2023/11/16 12:28:46;;;;;;;1.08;0.90;;;;;;;;;;6307536;22;20206;-89
2023/11/16 12:31:17;;;;;;;1.67;1.30;;;;;;;;;;6306986;22;20517;-88
2023/11/16 12:33:48;;;;;;;1.13;1.08;;;;;;;;;;6307422;22;20233;-88
2023/11/16 12:36:20;;;;;;;0.68;0.68;;;;;;;;;;6307014;22;20164;-87
2023/11/16 12:38:48;;;;;;;1.38;1.25;;;;;;;;;;6306942;22;20223;-89
2023/11/16 12:41:16;;;;;;;1.20;1.10;;;;;;;;;;6307245;22;20176;-89
2023/11/16 12:43:43;;;;;;;1.77;1.45;;;;;;;;;;6307367;22;20196;-89
2023/11/16 12:46:12;;;;;;;3.90;1.10;;;;;;;;;;6307149;22;20247;-89
2023/11/16 12:48:40;;;;;;;0.85;0.85;;;;;;;;;;6306815;22;20230;-89
2023/11/16 12:51:09;;;;;;;0.65;0.65;;;;;;;;;;6307117;22;20168;-89
2023/11/16 12:53:40;;;;;;;0.82;0.82;;;;;;;;;;6307352;22;20175;-89
2023/11/16 12:56:09;;;;;;;0.85;0.85;;;;;;;;;;6307040;22;20168;-89
2023/11/16 12:58:38;;;;;;;1.95;1.00;;;;;;;;;;6306681;22;20164;-89
2023/11/16 13:01:07;;;;;;;0.70;0.70;;;;;;;;;;6307020;22;20172;-89
2023/11/16 13:03:35;;;;;;;0.60;0.60;;;;;;;;;;6307580;22;20230;-89
2023/11/16 13:06:03;;;;;;;1.13;0.70;;;;;;;;;;6307165;22;20539;-89
2023/11/16 13:08:33;;;;;;;1.00;0.90;;;;;;;;;;6307144;22;20175;-89
2023/11/16 13:11:01;;;;;;;1.70;1.60;;;;;;;;;;6306867;22;20493;-89
2023/11/16 13:13:28;;;;;;;1.35;1.25;;;;;;;;;;6306047;22;20212;-89
2023/11/16 13:15:57;;;;;;;1.40;1.30;;;;;;;;;;6306216;22;20555;-88
2023/11/16 13:18:25;;;;;;;3.80;1.70;;;;;;;;;;6306560;22;20190;-89
2023/11/16 13:20:53;;;;;;;3.50;1.80;;;;;;;;;;6306437;22;20493;-89
2023/11/16 13:23:20;;;;;;;4.32;1.80;;;;;;;;;;6306236;22;20572;-88
2023/11/16 13:25:50;;;;;;;2.10;1.45;;;;;;;;;;6306179;22;20211;-88
2023/11/16 13:28:19;;;;;;;1.40;1.30;;;;;;;;;;6306302;22;20172;-89
2023/11/16 13:30:46;;;;;;;2.47;1.30;;;;;;;;;;6306061;22;20178;-89
2023/11/16 13:33:14;;;;;;;1.38;1.23;;;;;;;;;;6306043;22;20246;-89
2023/11/16 13:35:42;;;;;;;0.95;0.95;;;;;;;;;;6306736;22;20190;-89
2023/11/16 13:38:09;;;;;;;0.90;0.90;;;;;;;;;;6308459;22;20235;-89
2023/11/16 13:40:37;;;;;;;0.95;0.85;;;;;;;;;;6307997;22;20187;-89
2023/11/16 13:43:06;;;;;;;1.10;1.10;;;;;;;;;;6308292;22;20174;-87
2023/11/16 13:45:33;;;;;;;1.20;1.20;;;;;;;;;;6308305;22;20199;-89
2023/11/16 13:48:01;;;;;;;1.10;1.10;;;;;;;;;;6307660;22;20182;-89
2023/11/16 13:50:29;;;;;;;1.38;1.27;;;;;;;;;;6308116;22;20237;-89
2023/11/16 13:52:56;;;;;;;1.40;1.30;;;;;;;;;;6308129;22;20214;-88
2023/11/16 13:55:24;;;;;;;1.00;1.00;;;;;;;;;;6307813;22;20247;-89
2023/11/16 13:57:53;;;;;;;1.40;1.30;;;;;;;;;;6307769;22;20229;-89
2023/11/16 14:00:27;;;;;;;1.35;0.85;;;;;;;;;;6308333;22;20195;-90
2023/11/16 14:02:55;;;;;;;1.05;1.05;;;;;;;;;;6307732;22;20561;-88
2023/11/16 14:05:24;;;;;;;1.00;1.00;;;;;;;;;;6307749;22;20692;-89
2023/11/16 14:07:53;;;;;;;1.75;1.17;;;;;;;;;;6307730;22;20229;-89
2023/11/16 14:10:22;;;;;;;1.00;1.00;;;;;;;;;;6308012;22;20621;-89
2023/11/16 14:12:51;;;;;;;1.17;1.08;;;;;;;;;;6307730;22;20168;-88
2023/11/16 14:15:21;;;;;;;1.67;1.40;;;;;;;;;;6308221;22;20163;-87
2023/11/16 14:17:48;;;;;;;1.30;1.20;;;;;;;;;;6308463;22;20191;-89
2023/11/16 14:20:16;;;;;;;1.50;1.38;;;;;;;;;;6307960;22;20230;-88
2023/11/16 14:22:44;;;;;;;1.55;1.45;;;;;;;;;;6308262;22;20185;-89
2023/11/16 14:25:12;;;;;;;1.38;1.27;;;;;;;;;;6308400;22;20164;-89
2023/11/16 14:27:40;;;;;;;2.50;1.92;;;;;;;;;;6307549;22;20196;-89
2023/11/16 14:30:09;;;;;;;1.52;1.42;;;;;;;;;;6307662;22;20268;-88
2023/11/16 14:32:38;;;;;;;1.70;1.60;;;;;;;;;;6308281;22;20202;-89
2023/11/16 14:35:07;;;;;;;2.70;1.80;;;;;;;;;;6307582;22;20518;-88
2023/11/16 14:37:35;;;;;;;4.53;2.15;;;;;;;;;;6307937;22;20613;-87
2023/11/16 14:40:04;;;;;;;2.50;1.90;;;;;;;;;;6308066;22;20202;-88
2023/11/16 14:42:32;;;;;;;2.38;2.17;;;;;;;;;;6307677;22;20197;-88
2023/11/16 14:45:01;;;;;;;2.38;2.13;;;;;;;;;;6307526;22;20172;-88
2023/11/16 14:47:29;;;;;;;1.50;1.40;;;;;;;;;;6306972;22;20196;-89
2023/11/16 14:49:57;;;;;;;1.55;1.45;;;;;;;;;;6308122;22;20219;-88
2023/11/16 14:52:25;;;;;;;1.73;1.63;;;;;;;;;;6307936;22;20206;-89
2023/11/16 14:54:53;;;;;;;1.58;1.48;;;;;;;;;;6307786;22;20258;-88